Time;durP1;ratioP1;P1;durP2;ratioP2;P2;SDS_P1;SDS_P2;PMS_P1;PMS_P2;Temp;Humidity;BMP_temperature;BMP_pressure;BME280_temperature;BME280_humidity;BME280_pressure;Samples;Min_cycle;Max_cycle;Signal;HPM_P1;HPM_P2
2023/09/02 00:02:12;;;;;;;7.68;4.00;;;;;;;;;;5090335;28;20281;-68
2023/09/02 00:04:37;;;;;;;4.33;3.23;;;;;;;;;;5082536;28;20028;-69
2023/09/02 00:07:03;;;;;;;5.43;3.17;;;;;;;;;;5077222;28;20275;-68
2023/09/02 00:09:28;;;;;;;6.82;2.85;;;;;;;;;;5084346;28;20384;-69
2023/09/02 00:11:53;;;;;;;4.23;2.97;;;;;;;;;;5089841;28;20035;-69
2023/09/02 00:14:19;;;;;;;4.03;2.78;;;;;;;;;;5092183;28;20281;-69
2023/09/02 00:16:44;;;;;;;4.00;2.90;;;;;;;;;;5093286;28;20024;-69
2023/09/02 00:19:09;;;;;;;5.13;3.13;;;;;;;;;;5089243;28;20800;-70
2023/09/02 00:21:34;;;;;;;4.53;3.03;;;;;;;;;;5085099;28;20312;-69
2023/09/02 00:24:01;;;;;;;7.88;3.28;;;;;;;;;;5076977;28;20291;-68
2023/09/02 00:26:26;;;;;;;5.97;3.10;;;;;;;;;;5089369;28;20027;-68
2023/09/02 00:28:51;;;;;;;4.23;3.00;;;;;;;;;;5086998;28;20028;-68
2023/09/02 00:31:16;;;;;;;4.78;2.60;;;;;;;;;;5083073;28;20276;-68
2023/09/02 00:33:42;;;;;;;3.97;2.50;;;;;;;;;;5080726;28;20036;-68
2023/09/02 00:36:07;;;;;;;5.40;3.10;;;;;;;;;;5083409;28;20275;-68
2023/09/02 00:38:32;;;;;;;4.40;3.28;;;;;;;;;;5076509;28;20097;-67
2023/09/02 00:41:00;;;;;;;5.93;3.17;;;;;;;;;;5074883;28;20029;-68
2023/09/02 00:43:26;;;;;;;4.43;2.80;;;;;;;;;;5076399;28;20021;-68
2023/09/02 00:45:51;;;;;;;4.63;3.30;;;;;;;;;;5077076;28;20097;-69
2023/09/02 00:48:16;;;;;;;10.53;3.47;;;;;;;;;;5078636;28;20433;-68
2023/09/02 00:50:41;;;;;;;6.13;3.47;;;;;;;;;;5078302;28;20267;-68
2023/09/02 00:53:07;;;;;;;5.63;3.05;;;;;;;;;;5074331;28;20040;-68
2023/09/02 00:55:32;;;;;;;5.57;2.88;;;;;;;;;;5076847;28;20059;-68
2023/09/02 00:57:59;;;;;;;9.30;3.65;;;;;;;;;;5084122;28;20020;-68
2023/09/02 01:00:24;;;;;;;5.88;3.63;;;;;;;;;;5078701;28;20020;-69
2023/09/02 01:02:50;;;;;;;6.05;3.85;;;;;;;;;;5079390;28;20131;-69
2023/09/02 01:05:15;;;;;;;6.78;2.80;;;;;;;;;;5078751;28;20028;-68
2023/09/02 01:07:42;;;;;;;5.43;3.55;;;;;;;;;;5079204;28;20383;-70
2023/09/02 01:10:07;;;;;;;4.97;3.42;;;;;;;;;;5074314;28;20039;-70
2023/09/02 01:12:32;;;;;;;6.72;3.60;;;;;;;;;;5072146;28;20020;-69
2023/09/02 01:14:58;;;;;;;6.57;3.80;;;;;;;;;;5072265;28;20091;-70
2023/09/02 01:17:23;;;;;;;6.63;3.10;;;;;;;;;;5072356;28;20040;-70
2023/09/02 01:19:50;;;;;;;5.50;3.80;;;;;;;;;;5072376;28;20047;-70
2023/09/02 01:22:21;;;;;;;6.85;3.13;;;;;;;;;;5073820;28;20024;-70
2023/09/02 01:24:49;;;;;;;6.15;3.28;;;;;;;;;;5092113;28;20035;-70
2023/09/02 01:27:34;;;;;;;6.55;4.20;;;;;;;;;;5090545;28;20083;-70
2023/09/02 01:30:11;;;;;;;5.18;3.90;;;;;;;;;;5081957;28;20450;-70
2023/09/02 01:32:43;;;;;;;6.40;3.50;;;;;;;;;;5091684;28;20016;-70
2023/09/02 01:35:09;;;;;;;5.28;3.55;;;;;;;;;;5079643;28;20073;-70
2023/09/02 01:37:38;;;;;;;5.05;3.67;;;;;;;;;;5072014;28;20535;-70
2023/09/02 01:40:05;;;;;;;6.07;3.75;;;;;;;;;;5071815;28;20536;-70
2023/09/02 01:42:31;;;;;;;5.97;3.95;;;;;;;;;;5078271;28;20020;-70
2023/09/02 01:44:57;;;;;;;6.05;3.90;;;;;;;;;;5091391;28;20035;-69
2023/09/02 01:47:22;;;;;;;7.03;3.40;;;;;;;;;;5091296;28;20020;-70
2023/09/02 01:49:48;;;;;;;6.70;3.72;;;;;;;;;;5090527;28;20031;-70
2023/09/02 01:52:15;;;;;;;6.70;3.88;;;;;;;;;;5090690;28;20482;-70
2023/09/02 01:54:41;;;;;;;5.43;3.97;;;;;;;;;;5090499;28;20103;-71
2023/09/02 01:57:06;;;;;;;8.10;4.05;;;;;;;;;;5091623;28;20023;-69
2023/09/02 01:59:31;;;;;;;5.25;3.78;;;;;;;;;;5090691;28;20031;-69
2023/09/02 02:01:57;;;;;;;9.05;4.00;;;;;;;;;;5083824;28;20103;-68
2023/09/02 02:04:29;;;;;;;6.95;4.53;;;;;;;;;;5083410;28;20024;-68
2023/09/02 02:06:59;;;;;;;6.57;3.95;;;;;;;;;;5077603;28;20024;-69
2023/09/02 02:09:29;;;;;;;8.30;3.72;;;;;;;;;;5086720;28;20020;-69
2023/09/02 02:11:55;;;;;;;7.55;4.25;;;;;;;;;;5071440;28;20107;-69
2023/09/02 02:14:20;;;;;;;7.32;4.22;;;;;;;;;;5075028;28;20455;-68
2023/09/02 02:16:45;;;;;;;5.67;3.57;;;;;;;;;;5074384;28;20066;-68
2023/09/02 02:19:11;;;;;;;4.63;3.40;;;;;;;;;;5071276;28;20319;-69
2023/09/02 02:21:36;;;;;;;6.78;4.07;;;;;;;;;;5081722;28;20305;-70
2023/09/02 02:24:02;;;;;;;5.93;4.70;;;;;;;;;;5086017;28;20435;-69
2023/09/02 02:26:27;;;;;;;8.60;4.20;;;;;;;;;;5091604;28;20390;-69
2023/09/02 02:28:52;;;;;;;7.25;4.25;;;;;;;;;;5090504;28;20016;-69
2023/09/02 02:31:18;;;;;;;6.00;3.88;;;;;;;;;;5091139;28;20478;-68
2023/09/02 02:33:43;;;;;;;8.95;4.05;;;;;;;;;;5077404;28;20032;-69
2023/09/02 02:36:09;;;;;;;6.87;3.60;;;;;;;;;;5090861;28;20433;-69
2023/09/02 02:38:34;;;;;;;6.18;3.90;;;;;;;;;;5086197;28;20368;-69
2023/09/02 02:40:59;;;;;;;4.45;3.35;;;;;;;;;;5071253;28;20429;-69
2023/09/02 02:43:26;;;;;;;5.03;3.58;;;;;;;;;;5084144;28;20032;-69
2023/09/02 02:45:54;;;;;;;5.95;3.58;;;;;;;;;;5082061;28;20020;-68
2023/09/02 02:48:21;;;;;;;6.13;4.07;;;;;;;;;;5090852;28;20043;-69
2023/09/02 02:50:46;;;;;;;8.70;4.28;;;;;;;;;;5089489;28;20023;-69
2023/09/02 02:53:12;;;;;;;5.63;3.60;;;;;;;;;;5090927;28;20043;-69
2023/09/02 02:55:37;;;;;;;4.90;3.78;;;;;;;;;;5089955;28;20353;-69
2023/09/02 02:58:02;;;;;;;6.88;3.88;;;;;;;;;;5091064;28;20429;-69
2023/09/02 03:00:27;;;;;;;4.70;3.78;;;;;;;;;;5087206;28;20050;-69
2023/09/02 03:02:53;;;;;;;5.13;3.70;;;;;;;;;;5092191;28;20551;-69
2023/09/02 03:05:20;;;;;;;5.00;3.03;;;;;;;;;;5089471;28;20744;-69
2023/09/02 03:07:46;;;;;;;8.40;3.83;;;;;;;;;;5091877;28;20020;-69
2023/09/02 03:10:11;;;;;;;5.50;3.95;;;;;;;;;;5082348;28;20028;-69
2023/09/02 03:12:36;;;;;;;7.07;4.05;;;;;;;;;;5076547;28;20039;-69
2023/09/02 03:15:02;;;;;;;10.23;3.97;;;;;;;;;;5094107;28;20024;-69
2023/09/02 03:17:27;;;;;;;6.32;4.00;;;;;;;;;;5091044;28;20282;-68
2023/09/02 03:19:52;;;;;;;6.43;3.50;;;;;;;;;;5074265;28;20036;-69
2023/09/02 03:22:18;;;;;;;4.82;3.75;;;;;;;;;;5075236;28;20274;-69
2023/09/02 03:24:44;;;;;;;8.25;4.28;;;;;;;;;;5074298;28;20024;-69
2023/09/02 03:27:09;;;;;;;5.85;4.35;;;;;;;;;;5074019;28;20062;-68
2023/09/02 03:29:34;;;;;;;5.18;4.15;;;;;;;;;;5074320;28;20021;-69
2023/09/02 03:32:00;;;;;;;5.97;4.27;;;;;;;;;;5073940;28;20033;-68
2023/09/02 03:34:25;;;;;;;6.43;4.70;;;;;;;;;;5073500;28;20426;-68
2023/09/02 03:36:50;;;;;;;11.70;4.47;;;;;;;;;;5074003;28;20108;-69
2023/09/02 03:39:15;;;;;;;5.97;4.80;;;;;;;;;;5074751;28;20769;-68
2023/09/02 03:41:41;;;;;;;9.77;4.93;;;;;;;;;;5086175;28;20772;-69
2023/09/02 03:44:06;;;;;;;8.68;4.72;;;;;;;;;;5087021;28;20267;-68
2023/09/02 03:46:32;;;;;;;6.90;4.35;;;;;;;;;;5087809;28;20017;-68
2023/09/02 03:48:57;;;;;;;8.02;5.22;;;;;;;;;;5085915;28;20024;-68
2023/09/02 03:51:22;;;;;;;6.75;4.95;;;;;;;;;;5086486;28;20028;-68
2023/09/02 03:53:48;;;;;;;9.73;4.75;;;;;;;;;;5090633;28;20036;-69
2023/09/02 03:56:13;;;;;;;8.05;5.43;;;;;;;;;;5084953;28;20032;-68
2023/09/02 03:58:38;;;;;;;9.53;5.00;;;;;;;;;;5085585;28;20032;-68
2023/09/02 04:01:04;;;;;;;9.77;5.38;;;;;;;;;;5084689;28;20274;-68
2023/09/02 04:03:31;;;;;;;6.32;4.80;;;;;;;;;;5086632;28;20020;-69
2023/09/02 04:05:56;;;;;;;8.93;5.45;;;;;;;;;;5085087;28;20032;-68
2023/09/02 04:08:22;;;;;;;7.07;5.07;;;;;;;;;;5079831;28;20228;-68
2023/09/02 04:10:52;;;;;;;6.68;5.15;;;;;;;;;;5073905;28;20301;-68
2023/09/02 04:13:18;;;;;;;6.97;5.03;;;;;;;;;;5084481;28;20031;-69
2023/09/02 04:15:43;;;;;;;7.22;4.45;;;;;;;;;;5084258;28;20107;-69
2023/09/02 04:18:08;;;;;;;8.10;4.80;;;;;;;;;;5090100;28;20016;-69
2023/09/02 04:20:36;;;;;;;6.28;4.50;;;;;;;;;;5089329;28;20270;-68
2023/09/02 04:23:02;;;;;;;6.30;4.47;;;;;;;;;;5090641;28;20433;-68
2023/09/02 04:25:27;;;;;;;8.45;4.78;;;;;;;;;;5085063;28;20046;-68
2023/09/02 04:27:52;;;;;;;7.77;4.73;;;;;;;;;;5088281;28;20069;-68
2023/09/02 04:30:17;;;;;;;6.20;5.18;;;;;;;;;;5084622;28;20262;-69
2023/09/02 04:32:45;;;;;;;10.77;4.68;;;;;;;;;;5077709;28;20494;-69
2023/09/02 04:35:11;;;;;;;7.72;4.15;;;;;;;;;;5077526;28;20070;-68
2023/09/02 04:37:36;;;;;;;4.93;3.70;;;;;;;;;;5086532;28;20012;-68
2023/09/02 04:40:01;;;;;;;4.90;3.92;;;;;;;;;;5086739;28;20478;-68
2023/09/02 04:42:26;;;;;;;5.40;4.28;;;;;;;;;;5089734;28;20044;-68
2023/09/02 04:44:52;;;;;;;5.77;4.50;;;;;;;;;;5086814;28;20031;-69
2023/09/02 04:47:17;;;;;;;5.45;4.20;;;;;;;;;;5084543;28;20349;-69
2023/09/02 04:49:42;;;;;;;5.07;4.13;;;;;;;;;;5085883;28;20036;-69
2023/09/02 04:52:07;;;;;;;6.33;4.23;;;;;;;;;;5085107;28;20298;-69
2023/09/02 04:54:33;;;;;;;8.37;3.57;;;;;;;;;;5087042;28;20262;-69
2023/09/02 04:56:58;;;;;;;4.87;3.30;;;;;;;;;;5085278;28;20275;-69
2023/09/02 04:59:23;;;;;;;5.40;3.67;;;;;;;;;;5088617;28;20294;-69
2023/09/02 05:01:48;;;;;;;4.63;3.53;;;;;;;;;;5085538;28;20314;-69
2023/09/02 05:04:13;;;;;;;5.90;3.60;;;;;;;;;;5088554;28;20757;-69
2023/09/02 05:06:39;;;;;;;5.80;4.40;;;;;;;;;;5087896;28;20028;-69
2023/09/02 05:09:04;;;;;;;5.15;4.07;;;;;;;;;;5088743;28;20294;-69
2023/09/02 05:11:30;;;;;;;9.00;4.57;;;;;;;;;;5085855;28;20019;-69
2023/09/02 05:13:55;;;;;;;5.25;3.70;;;;;;;;;;5072064;28;20028;-69
2023/09/02 05:16:20;;;;;;;5.73;4.03;;;;;;;;;;5085753;28;20016;-69
2023/09/02 05:18:45;;;;;;;7.20;4.00;;;;;;;;;;5071953;28;20310;-69
2023/09/02 05:21:11;;;;;;;5.45;3.42;;;;;;;;;;5072756;28;20446;-69
2023/09/02 05:23:36;;;;;;;8.07;3.15;;;;;;;;;;5071147;28;20025;-69
2023/09/02 05:26:01;;;;;;;3.70;2.80;;;;;;;;;;5085258;28;20035;-69
2023/09/02 05:28:26;;;;;;;8.40;3.72;;;;;;;;;;5085231;28;20757;-69
2023/09/02 05:30:52;;;;;;;5.10;4.43;;;;;;;;;;5073542;28;20028;-69
2023/09/02 05:33:17;;;;;;;5.32;3.88;;;;;;;;;;5079180;28;20073;-69
2023/09/02 05:35:45;;;;;;;7.18;3.85;;;;;;;;;;5079753;28;20039;-69
2023/09/02 05:38:10;;;;;;;8.68;3.97;;;;;;;;;;5073202;28;20024;-69
2023/09/02 05:40:38;;;;;;;9.70;3.93;;;;;;;;;;5072054;28;20471;-69
2023/09/02 05:43:04;;;;;;;6.57;3.63;;;;;;;;;;5072756;28;20672;-69
2023/09/02 05:45:29;;;;;;;6.17;4.17;;;;;;;;;;5072569;28;20028;-69
2023/09/02 05:47:54;;;;;;;5.60;4.03;;;;;;;;;;5072415;28;20679;-69
2023/09/02 05:50:19;;;;;;;6.40;4.10;;;;;;;;;;5072489;28;20710;-69
2023/09/02 05:52:45;;;;;;;5.72;3.80;;;;;;;;;;5072371;28;20282;-69
2023/09/02 05:55:10;;;;;;;8.65;4.20;;;;;;;;;;5072466;28;20025;-69
2023/09/02 05:57:35;;;;;;;5.85;3.70;;;;;;;;;;5072156;28;20051;-69
2023/09/02 06:00:03;;;;;;;6.17;4.47;;;;;;;;;;5071394;28;20078;-69
2023/09/02 06:02:30;;;;;;;7.28;4.90;;;;;;;;;;5071670;28;20286;-69
2023/09/02 06:04:56;;;;;;;6.90;5.15;;;;;;;;;;5085356;28;20062;-69
2023/09/02 06:07:21;;;;;;;7.50;4.40;;;;;;;;;;5084670;28;20013;-69
2023/09/02 06:09:46;;;;;;;6.50;4.23;;;;;;;;;;5071815;28;20531;-69
2023/09/02 06:12:11;;;;;;;5.70;4.43;;;;;;;;;;5071082;28;20270;-68
2023/09/02 06:14:37;;;;;;;7.60;5.22;;;;;;;;;;5090246;28;20270;-69
2023/09/02 06:17:02;;;;;;;7.17;4.83;;;;;;;;;;5079015;28;20025;-69
2023/09/02 06:19:27;;;;;;;6.65;4.10;;;;;;;;;;5090110;28;20776;-69
2023/09/02 06:21:52;;;;;;;7.47;4.05;;;;;;;;;;5091567;28;20027;-69
2023/09/02 06:24:18;;;;;;;11.23;4.57;;;;;;;;;;5073120;28;20037;-69
2023/09/02 06:26:43;;;;;;;5.70;4.65;;;;;;;;;;5071727;28;20282;-69
2023/09/02 06:29:08;;;;;;;7.20;4.37;;;;;;;;;;5071969;28;20029;-69
2023/09/02 06:31:33;;;;;;;5.57;4.28;;;;;;;;;;5072335;28;20255;-69
2023/09/02 06:33:58;;;;;;;6.20;5.13;;;;;;;;;;5083881;28;20021;-69
2023/09/02 06:36:24;;;;;;;8.23;4.70;;;;;;;;;;5076662;28;20369;-69
2023/09/02 06:38:50;;;;;;;7.03;4.60;;;;;;;;;;5081815;28;20286;-69
2023/09/02 06:41:15;;;;;;;6.35;5.32;;;;;;;;;;5084099;28;20800;-68
2023/09/02 06:43:41;;;;;;;6.43;4.82;;;;;;;;;;5085593;28;20024;-69
2023/09/02 06:46:10;;;;;;;6.45;4.95;;;;;;;;;;5085294;28;20046;-68
2023/09/02 06:48:36;;;;;;;6.65;5.35;;;;;;;;;;5079692;28;20459;-69
2023/09/02 06:51:01;;;;;;;6.47;5.60;;;;;;;;;;5086917;28;20110;-69
2023/09/02 06:53:26;;;;;;;7.38;5.25;;;;;;;;;;5089527;28;20016;-69
2023/09/02 06:55:52;;;;;;;6.63;5.10;;;;;;;;;;5087364;28;20099;-69
2023/09/02 06:58:17;;;;;;;5.97;4.80;;;;;;;;;;5076061;28;20271;-69
2023/09/02 07:00:42;;;;;;;7.30;5.47;;;;;;;;;;5087616;28;20035;-69
2023/09/02 07:03:07;;;;;;;7.53;4.83;;;;;;;;;;5086583;28;20320;-69
2023/09/02 07:05:33;;;;;;;6.87;5.57;;;;;;;;;;5077715;28;20301;-69
2023/09/02 07:08:01;;;;;;;7.17;5.57;;;;;;;;;;5086277;28;20765;-69
2023/09/02 07:10:27;;;;;;;6.97;5.80;;;;;;;;;;5083518;28;20325;-68
2023/09/02 07:12:53;;;;;;;6.85;5.40;;;;;;;;;;5084450;28;20471;-68
2023/09/02 07:15:18;;;;;;;9.10;5.55;;;;;;;;;;5087550;28;20020;-68
2023/09/02 07:17:43;;;;;;;6.57;5.90;;;;;;;;;;5079970;28;20036;-68
2023/09/02 07:20:09;;;;;;;5.68;5.03;;;;;;;;;;5089337;28;20051;-68
2023/09/02 07:22:34;;;;;;;5.88;5.28;;;;;;;;;;5081025;28;20027;-68
2023/09/02 07:25:00;;;;;;;7.13;5.22;;;;;;;;;;5090836;28;20127;-68
2023/09/02 07:27:25;;;;;;;5.80;5.15;;;;;;;;;;5093028;28;20044;-68
2023/09/02 07:29:50;;;;;;;5.27;4.53;;;;;;;;;;5084026;28;20537;-68
2023/09/02 07:32:15;;;;;;;6.30;4.63;;;;;;;;;;5091339;28;20286;-68
2023/09/02 07:34:41;;;;;;;7.60;4.25;;;;;;;;;;5090725;28;20290;-68
2023/09/02 07:37:06;;;;;;;5.53;4.38;;;;;;;;;;5092158;28;20107;-68
2023/09/02 07:39:32;;;;;;;4.85;4.13;;;;;;;;;;5090183;28;20032;-68
2023/09/02 07:41:57;;;;;;;6.38;4.10;;;;;;;;;;5091870;28;20467;-69
2023/09/02 07:44:22;;;;;;;4.07;3.17;;;;;;;;;;5088391;28;20024;-69
2023/09/02 07:46:48;;;;;;;4.05;3.20;;;;;;;;;;5090418;28;20764;-69
2023/09/02 07:49:13;;;;;;;4.82;3.63;;;;;;;;;;5089686;28;20032;-69
2023/09/02 07:51:38;;;;;;;4.97;4.10;;;;;;;;;;5088799;28;20024;-69
2023/09/02 07:54:03;;;;;;;4.27;3.50;;;;;;;;;;5089231;28;20277;-69
2023/09/02 07:56:29;;;;;;;4.93;3.97;;;;;;;;;;5091320;28;20270;-69
2023/09/02 07:58:54;;;;;;;4.80;3.93;;;;;;;;;;5091396;28;20321;-69
2023/09/02 08:01:20;;;;;;;5.83;4.40;;;;;;;;;;5090915;28;20282;-69
2023/09/02 08:03:46;;;;;;;5.90;3.58;;;;;;;;;;5080752;28;20287;-69
2023/09/02 08:06:11;;;;;;;4.80;4.00;;;;;;;;;;5081825;28;20471;-69
2023/09/02 08:08:37;;;;;;;4.22;3.15;;;;;;;;;;5087593;28;20067;-69
2023/09/02 08:11:05;;;;;;;4.35;2.95;;;;;;;;;;5092447;28;20536;-69
2023/09/02 08:13:31;;;;;;;5.10;3.25;;;;;;;;;;5074862;28;20415;-69
2023/09/02 08:15:57;;;;;;;5.07;2.95;;;;;;;;;;5091770;28;20138;-69
2023/09/02 08:18:22;;;;;;;6.10;2.75;;;;;;;;;;5092593;28;20020;-69
2023/09/02 08:20:47;;;;;;;3.72;2.25;;;;;;;;;;5091280;28;20023;-69
2023/09/02 08:23:13;;;;;;;3.17;2.50;;;;;;;;;;5088332;28;20023;-69
2023/09/02 08:25:38;;;;;;;3.85;2.42;;;;;;;;;;5092732;28;20288;-69
2023/09/02 08:28:03;;;;;;;3.50;2.13;;;;;;;;;;5091803;28;20074;-69
2023/09/02 08:30:29;;;;;;;3.03;1.65;;;;;;;;;;5092382;28;20040;-69
2023/09/02 08:32:54;;;;;;;4.50;2.00;;;;;;;;;;5091699;28;20028;-69
2023/09/02 08:35:19;;;;;;;4.13;2.20;;;;;;;;;;5091771;28;20063;-69
2023/09/02 08:37:45;;;;;;;3.90;2.30;;;;;;;;;;5091854;28;20285;-69
2023/09/02 08:40:10;;;;;;;3.42;2.30;;;;;;;;;;5092387;28;20316;-69
2023/09/02 08:42:36;;;;;;;3.38;1.80;;;;;;;;;;5091838;28;20028;-69
2023/09/02 08:45:03;;;;;;;4.60;2.05;;;;;;;;;;5091905;28;20020;-69
2023/09/02 08:47:30;;;;;;;4.95;2.05;;;;;;;;;;5091568;28;20382;-69
2023/09/02 08:49:56;;;;;;;5.13;2.78;;;;;;;;;;5091945;28;20016;-69
2023/09/02 08:52:21;;;;;;;7.38;2.38;;;;;;;;;;5087409;28;20028;-69
2023/09/02 08:54:47;;;;;;;3.75;2.88;;;;;;;;;;5083705;28;20028;-69
2023/09/02 08:57:15;;;;;;;5.88;3.42;;;;;;;;;;5090110;28;20442;-69
2023/09/02 08:59:41;;;;;;;5.38;3.38;;;;;;;;;;5088998;28;20032;-69
2023/09/02 09:02:07;;;;;;;4.77;3.27;;;;;;;;;;5090279;28;20036;-69
2023/09/02 09:04:35;;;;;;;4.22;3.15;;;;;;;;;;5091715;28;20316;-69
2023/09/02 09:07:04;;;;;;;8.18;3.33;;;;;;;;;;5087912;28;20028;-68
2023/09/02 09:09:32;;;;;;;6.38;3.42;;;;;;;;;;5086566;28;20038;-68
2023/09/02 09:11:58;;;;;;;5.75;2.92;;;;;;;;;;5077749;28;20024;-68
2023/09/02 09:14:25;;;;;;;5.22;3.20;;;;;;;;;;5087555;28;20031;-68
2023/09/02 09:16:52;;;;;;;4.78;2.85;;;;;;;;;;5083555;28;20032;-68
2023/09/02 09:19:18;;;;;;;4.32;3.30;;;;;;;;;;5085944;28;20052;-68
2023/09/02 09:21:46;;;;;;;3.95;2.90;;;;;;;;;;5089375;28;20062;-69
2023/09/02 09:24:14;;;;;;;5.05;3.00;;;;;;;;;;5079174;28;20016;-68
2023/09/02 09:26:43;;;;;;;4.38;3.03;;;;;;;;;;5091355;28;20024;-69
2023/09/02 09:29:13;;;;;;;6.22;3.40;;;;;;;;;;5092121;28;20028;-69
2023/09/02 09:31:38;;;;;;;5.43;2.38;;;;;;;;;;5081556;28;20020;-69
2023/09/02 09:34:04;;;;;;;6.80;2.67;;;;;;;;;;5081371;28;20110;-68
2023/09/02 09:36:30;;;;;;;5.57;2.30;;;;;;;;;;5079207;28;20115;-68
2023/09/02 09:38:56;;;;;;;4.70;2.47;;;;;;;;;;5090679;28;20110;-68
2023/09/02 09:41:23;;;;;;;4.07;2.38;;;;;;;;;;5089448;28;20045;-69
2023/09/02 09:44:07;;;;;;;4.13;2.47;;;;;;;;;;5089921;28;20027;-68
2023/09/02 09:46:35;;;;;;;3.97;2.80;;;;;;;;;;5080936;28;20024;-69
2023/09/02 09:49:01;;;;;;;4.22;2.35;;;;;;;;;;5089969;28;20028;-69
2023/09/02 09:51:27;;;;;;;3.35;2.30;;;;;;;;;;5091502;28;20039;-69
2023/09/02 09:53:52;;;;;;;3.85;2.38;;;;;;;;;;5089278;28;20056;-69
2023/09/02 09:56:17;;;;;;;5.93;2.93;;;;;;;;;;5090650;28;20374;-69
2023/09/02 09:58:43;;;;;;;4.80;3.22;;;;;;;;;;5089022;28;20293;-69
2023/09/02 10:01:08;;;;;;;5.30;4.00;;;;;;;;;;5090188;28;20057;-68
2023/09/02 10:03:34;;;;;;;8.40;3.78;;;;;;;;;;5088745;28;20278;-68
2023/09/02 10:05:59;;;;;;;7.15;4.18;;;;;;;;;;5089587;28;20024;-70
2023/09/02 10:08:25;;;;;;;5.57;3.65;;;;;;;;;;5086929;28;20016;-69
2023/09/02 10:10:50;;;;;;;6.05;3.72;;;;;;;;;;5082516;28;20027;-69
2023/09/02 10:13:15;;;;;;;4.87;3.53;;;;;;;;;;5083204;28;20463;-69
2023/09/02 10:15:42;;;;;;;6.13;3.78;;;;;;;;;;5084632;28;20667;-69
2023/09/02 10:18:07;;;;;;;5.68;3.40;;;;;;;;;;5089337;28;20065;-69
2023/09/02 10:20:34;;;;;;;7.60;3.20;;;;;;;;;;5089235;28;20044;-69
2023/09/02 10:23:07;;;;;;;4.03;2.92;;;;;;;;;;5087845;28;20020;-68
2023/09/02 10:25:39;;;;;;;4.82;3.00;;;;;;;;;;5083930;28;20235;-69
2023/09/02 10:28:05;;;;;;;4.95;3.08;;;;;;;;;;5090180;28;20449;-69
2023/09/02 10:30:43;;;;;;;4.88;2.50;;;;;;;;;;5090690;28;20402;-69
2023/09/02 10:33:11;;;;;;;3.70;2.35;;;;;;;;;;5090250;28;20501;-69
2023/09/02 10:35:41;;;;;;;4.05;2.10;;;;;;;;;;5090601;28;20019;-69
2023/09/02 10:38:07;;;;;;;5.05;2.20;;;;;;;;;;5088017;28;20024;-69
2023/09/02 10:40:38;;;;;;;4.40;1.90;;;;;;;;;;5090474;28;20024;-69
2023/09/02 10:43:03;;;;;;;3.55;1.63;;;;;;;;;;5087276;28;20028;-69
2023/09/02 10:45:29;;;;;;;2.88;1.77;;;;;;;;;;5090026;28;20028;-69
2023/09/02 10:47:54;;;;;;;3.63;1.88;;;;;;;;;;5090519;28;20582;-69
2023/09/02 10:50:20;;;;;;;3.00;1.80;;;;;;;;;;5089996;28;20035;-69
2023/09/02 10:52:45;;;;;;;3.92;1.98;;;;;;;;;;5087929;28;20410;-69
2023/09/02 10:55:11;;;;;;;2.87;1.63;;;;;;;;;;5090425;28;20020;-69
2023/09/02 10:58:05;;;;;;;3.00;1.35;;;;;;;;;;5082964;28;20267;-69
2023/09/02 11:00:31;;;;;;;3.33;1.98;;;;;;;;;;5063661;28;20597;-69
2023/09/02 11:02:59;;;;;;;4.50;1.30;;;;;;;;;;5087026;28;20040;-70
2023/09/02 11:05:25;;;;;;;2.80;1.20;;;;;;;;;;5075490;28;20036;-69
2023/09/02 11:07:52;;;;;;;2.63;1.20;;;;;;;;;;5071155;28;20028;-69
2023/09/02 11:10:18;;;;;;;3.13;1.10;;;;;;;;;;5077659;28;20021;-69
2023/09/02 11:12:58;;;;;;;2.85;0.82;;;;;;;;;;5082262;28;20050;-69
2023/09/02 11:15:24;;;;;;;2.97;1.15;;;;;;;;;;5079682;28;20107;-69
2023/09/02 11:17:49;;;;;;;2.58;1.30;;;;;;;;;;5088068;28;20115;-69
2023/09/02 11:20:15;;;;;;;4.32;1.38;;;;;;;;;;5060982;28;20425;-69
2023/09/02 11:23:01;;;;;;;3.65;1.40;;;;;;;;;;5081354;28;20017;-69
2023/09/02 11:25:26;;;;;;;6.47;2.20;;;;;;;;;;5094159;28;20016;-69
2023/09/02 11:27:53;;;;;;;3.30;1.73;;;;;;;;;;5088543;28;20103;-69
2023/09/02 11:30:18;;;;;;;3.92;1.90;;;;;;;;;;5084114;28;20033;-69
2023/09/02 11:32:44;;;;;;;4.15;1.80;;;;;;;;;;5088397;28;20024;-69
2023/09/02 11:35:11;;;;;;;3.45;2.00;;;;;;;;;;5080728;28;20024;-69
2023/09/02 11:37:36;;;;;;;5.97;1.75;;;;;;;;;;5087707;28;20020;-69
2023/09/02 11:40:14;;;;;;;3.50;1.50;;;;;;;;;;5085174;28;20035;-69
2023/09/02 11:42:48;;;;;;;4.43;1.50;;;;;;;;;;5087450;28;20293;-69
2023/09/02 11:45:13;;;;;;;;;;;;;;;;;;5090071;28;20070;-69
2023/09/02 11:47:38;;;;;;;3.45;1.13;;;;;;;;;;5083498;28;19920;-69
2023/09/02 11:50:03;;;;;;;3.00;1.40;;;;;;;;;;5076809;28;20035;-69
2023/09/02 11:52:29;;;;;;;2.30;1.40;;;;;;;;;;5087895;28;20074;-69
2023/09/02 11:54:54;;;;;;;3.23;1.70;;;;;;;;;;5085710;28;20282;-69
2023/09/02 11:57:20;;;;;;;3.83;1.37;;;;;;;;;;5079313;28;20362;-69
2023/09/02 11:59:45;;;;;;;4.10;1.70;;;;;;;;;;5083739;28;20301;-68
2023/09/02 12:02:15;;;;;;;2.60;0.80;;;;;;;;;;5086014;28;20481;-68
2023/09/02 12:04:41;;;;;;;1.65;0.65;;;;;;;;;;5080352;28;20263;-68
2023/09/02 12:07:07;;;;;;;2.10;0.98;;;;;;;;;;5075767;28;20027;-68
2023/09/02 12:09:34;;;;;;;1.95;0.70;;;;;;;;;;5077565;28;20027;-68
2023/09/02 12:12:00;;;;;;;2.13;1.08;;;;;;;;;;5083963;28;20069;-69
2023/09/02 12:14:26;;;;;;;2.70;1.20;;;;;;;;;;5092405;28;20028;-68
2023/09/02 12:16:52;;;;;;;2.70;1.13;;;;;;;;;;5082803;28;20099;-69
2023/09/02 12:19:18;;;;;;;2.22;1.02;;;;;;;;;;5092883;28;20420;-68
2023/09/02 12:21:44;;;;;;;2.45;1.35;;;;;;;;;;5092736;28;20562;-69
2023/09/02 12:24:09;;;;;;;3.60;1.23;;;;;;;;;;5092774;28;20031;-68
2023/09/02 12:26:44;;;;;;;2.55;1.02;;;;;;;;;;5067969;28;20026;-68
2023/09/02 12:29:16;;;;;;;2.75;1.08;;;;;;;;;;5092072;28;20459;-69
2023/09/02 12:31:44;;;;;;;1.73;0.90;;;;;;;;;;5073264;28;20020;-68
2023/09/02 12:34:09;;;;;;;1.65;0.70;;;;;;;;;;5087787;28;20044;-68
2023/09/02 12:36:34;;;;;;;1.88;0.90;;;;;;;;;;5073876;28;20023;-68
2023/09/02 12:38:59;;;;;;;2.30;0.70;;;;;;;;;;5074735;28;20037;-69
2023/09/02 12:41:36;;;;;;;5.50;1.03;;;;;;;;;;5073855;28;20094;-68
2023/09/02 12:44:13;;;;;;;2.33;0.90;;;;;;;;;;5076301;28;20020;-69
2023/09/02 12:46:39;;;;;;;3.08;1.25;;;;;;;;;;5057410;28;20025;-69
2023/09/02 12:49:04;;;;;;;2.05;1.02;;;;;;;;;;5076524;28;20110;-69
2023/09/02 12:51:30;;;;;;;2.27;1.13;;;;;;;;;;5074767;28;20028;-69
2023/09/02 12:53:55;;;;;;;3.78;1.08;;;;;;;;;;5078056;28;20744;-68
2023/09/02 12:56:20;;;;;;;2.10;1.20;;;;;;;;;;5074676;28;20483;-68
2023/09/02 12:58:45;;;;;;;2.73;1.20;;;;;;;;;;5077147;28;20424;-68
2023/09/02 13:01:11;;;;;;;2.00;1.00;;;;;;;;;;5074953;28;20111;-68
2023/09/02 13:03:36;;;;;;;3.17;1.17;;;;;;;;;;5076474;28;20032;-70
2023/09/02 13:06:01;;;;;;;2.50;1.30;;;;;;;;;;5083005;28;20289;-68
2023/09/02 13:08:26;;;;;;;2.60;1.00;;;;;;;;;;5079675;28;20647;-69
2023/09/02 13:10:52;;;;;;;2.50;1.33;;;;;;;;;;5083909;28;20428;-69
2023/09/02 13:13:17;;;;;;;2.90;1.10;;;;;;;;;;5072458;28;20302;-70
2023/09/02 13:15:42;;;;;;;4.30;1.43;;;;;;;;;;5068528;28;20048;-69
2023/09/02 13:18:07;;;;;;;2.77;1.43;;;;;;;;;;5091821;28;20266;-69
2023/09/02 13:20:35;;;;;;;2.67;1.33;;;;;;;;;;5091442;28;20297;-69
2023/09/02 13:23:01;;;;;;;2.42;1.27;;;;;;;;;;5089297;28;20720;-69
2023/09/02 13:25:26;;;;;;;2.67;1.30;;;;;;;;;;5072172;28;20032;-69
2023/09/02 13:27:51;;;;;;;2.60;1.38;;;;;;;;;;5073818;28;20031;-69
2023/09/02 13:30:20;;;;;;;2.73;1.40;;;;;;;;;;5092375;28;20139;-69
2023/09/02 13:32:45;;;;;;;3.00;1.52;;;;;;;;;;5091323;28;20791;-69
2023/09/02 13:35:18;;;;;;;2.78;1.30;;;;;;;;;;5091899;28;20024;-70
2023/09/02 13:37:47;;;;;;;2.30;1.30;;;;;;;;;;5074643;28;20028;-69
2023/09/02 13:40:15;;;;;;;2.70;1.40;;;;;;;;;;5071753;28;20035;-69
2023/09/02 13:42:43;;;;;;;3.90;1.33;;;;;;;;;;5072110;28;20111;-69
2023/09/02 13:45:09;;;;;;;3.45;1.27;;;;;;;;;;5070970;28;20024;-69
2023/09/02 13:47:34;;;;;;;2.70;1.00;;;;;;;;;;5088321;28;20370;-70
2023/09/02 13:49:59;;;;;;;1.95;0.80;;;;;;;;;;5081659;28;20081;-69
2023/09/02 13:52:25;;;;;;;2.57;1.13;;;;;;;;;;5068116;28;20024;-68
2023/09/02 13:54:54;;;;;;;2.65;0.90;;;;;;;;;;5066421;28;20700;-68
2023/09/02 13:57:21;;;;;;;2.40;0.93;;;;;;;;;;5060783;28;20028;-69
2023/09/02 13:59:46;;;;;;;3.00;1.10;;;;;;;;;;5062692;28;20432;-68
2023/09/02 14:02:14;;;;;;;4.17;1.20;;;;;;;;;;5070654;28;20107;-68
2023/09/02 14:04:41;;;;;;;2.03;1.05;;;;;;;;;;5068499;28;20345;-68
2023/09/02 14:07:06;;;;;;;3.45;0.90;;;;;;;;;;5066470;28;20029;-68
2023/09/02 14:09:31;;;;;;;2.95;1.08;;;;;;;;;;5075993;28;20989;-68
2023/09/02 14:11:58;;;;;;;1.93;0.77;;;;;;;;;;5051285;28;20480;-68
2023/09/02 14:14:23;;;;;;;2.15;1.08;;;;;;;;;;5047570;28;21233;-68
2023/09/02 14:16:48;;;;;;;1.90;1.10;;;;;;;;;;5054023;28;20028;-68
2023/09/02 14:19:14;;;;;;;2.40;1.30;;;;;;;;;;5058675;28;20067;-69
2023/09/02 14:21:39;;;;;;;3.88;1.90;;;;;;;;;;5066526;28;20811;-69
2023/09/02 14:24:05;;;;;;;4.63;2.40;;;;;;;;;;5056512;28;20025;-69
2023/09/02 14:26:30;;;;;;;3.95;2.05;;;;;;;;;;5064892;28;20377;-68
2023/09/02 14:28:56;;;;;;;4.95;3.35;;;;;;;;;;5068083;28;20110;-68
2023/09/02 14:31:21;;;;;;;3.70;2.60;;;;;;;;;;5081801;28;20017;-69
2023/09/02 14:33:47;;;;;;;3.27;2.40;;;;;;;;;;5073676;28;20099;-68
2023/09/02 14:36:12;;;;;;;3.60;2.30;;;;;;;;;;5080396;28;20310;-68
2023/09/02 14:38:37;;;;;;;5.07;2.80;;;;;;;;;;5077400;28;20278;-68